首页
METAR-TAF:

METAR-TAF

机场 :

巴林国际机场

巴林, 巴林

纬度: 26-16N, 经度: 050-39E, 海拔: 2米

当前天气观测

该预报发布于36分钟前的09:00 UTC
风速8节,风向西北
温度 21°C
湿度 60%
气压 1018 hPa
能见度10公里或以上
少量云层高于2500英尺

METAR: OBBI 210900Z 31008KT 9999 FEW025 21/13 Q1018 NOSIG

时间: 12:36 (09:36 UTC)

预报

该预报发布于4小时和36分钟前的05:00 UTC
预报有效从21日的 06点(UTC)到 22日的 12点(UTC)
风速8节,风向
能见度10公里或以上
1500米以下无云,无积雨云
成为
从 21日的 15点(UTC)到 21日的 17点(UTC)
风速10节,风向东南
几率 30% :
短暂存在
从 21日的 15点(UTC)到 21日的 21点(UTC)
能見度: 5000

TAF: OBBI 210500Z 2106/2212 35008KT CAVOK BECMG 2115/2117 14010KT PROB30 TEMPO 2115/2121 5000 HZ

超过4000个机场的气象观测和天气预报(METAR&TAF报告)。

可查询的气象台以黄色和红色小点在地图上表示。

将鼠标移到小点上方,可查看气象台名称。

然后点击查看天气观测和预报。

如需切换地图:点击带黑十字的绿色按钮放大地图;点击带横线的绿色按钮缩小地图;或者点击绿色箭头查看邻近地区的地图。


METAR-TAF: